createdAt,value
2018-08-06T00:02:08.391Z,99.90
2018-08-06T00:07:04.479Z,99.90
2018-08-06T00:11:59.534Z,99.90
2018-08-06T00:16:54.649Z,99.90
2018-08-06T00:21:49.275Z,99.90
2018-08-06T00:26:44.127Z,99.90
2018-08-06T00:31:38.743Z,99.90
2018-08-06T00:36:33.462Z,99.90
2018-08-06T00:41:28.506Z,99.90
2018-08-06T00:46:24.219Z,99.90
2018-08-06T00:51:18.980Z,99.90
2018-08-06T00:56:13.663Z,99.90
2018-08-06T01:01:08.521Z,99.90
2018-08-06T01:06:03.275Z,99.90
2018-08-06T01:10:58.260Z,99.90
2018-08-06T01:15:53.188Z,99.90
2018-08-06T01:20:47.879Z,99.90
2018-08-06T01:25:42.606Z,99.90
2018-08-06T01:30:37.226Z,99.90
2018-08-06T01:35:31.851Z,99.90
2018-08-06T01:40:26.507Z,99.90
2018-08-06T01:45:21.178Z,99.90
2018-08-06T01:50:16.767Z,99.90
2018-08-06T01:55:11.464Z,99.90
2018-08-06T02:00:15.166Z,99.90
2018-08-06T02:05:10.503Z,99.90
2018-08-06T02:10:06.979Z,99.90
2018-08-06T02:15:03.532Z,99.90
2018-08-06T02:19:58.288Z,99.90
2018-08-06T02:24:52.915Z,99.90
2018-08-06T02:29:47.616Z,99.90
2018-08-06T02:34:42.378Z,99.90
2018-08-06T02:39:38.557Z,99.90
2018-08-06T02:44:33.367Z,99.90
2018-08-06T02:49:28.270Z,99.90
2018-08-06T02:54:22.928Z,99.90
2018-08-06T02:59:18.276Z,99.90
2018-08-06T03:04:13.170Z,99.90
2018-08-06T03:09:11.532Z,99.90
2018-08-06T03:14:06.375Z,99.90
2018-08-06T03:19:01.136Z,99.90
2018-08-06T03:23:55.868Z,99.90
2018-08-06T03:28:51.708Z,99.90
2018-08-06T03:33:46.307Z,99.90
2018-08-06T03:38:43.038Z,99.90
2018-08-06T03:43:37.735Z,99.90
2018-08-06T03:48:32.399Z,99.90
2018-08-06T03:53:27.310Z,99.90
2018-08-06T03:58:22.000Z,99.90
2018-08-06T04:03:16.668Z,99.90
2018-08-06T04:08:12.217Z,99.90
2018-08-06T04:13:07.040Z,99.90
2018-08-06T04:18:01.842Z,99.90
2018-08-06T04:22:56.489Z,99.90
2018-08-06T04:27:51.125Z,99.90
2018-08-06T04:32:46.912Z,99.90
2018-08-06T04:37:41.859Z,99.90
2018-08-06T04:42:37.031Z,99.90
2018-08-06T04:47:32.560Z,99.90
2018-08-06T04:52:27.300Z,99.90
2018-08-06T04:57:22.291Z,99.90
2018-08-06T05:02:17.239Z,99.90
2018-08-06T05:07:12.039Z,99.90
2018-08-06T05:12:07.543Z,99.90
2018-08-06T05:17:02.625Z,99.90
2018-08-06T05:21:57.263Z,99.90
2018-08-06T05:26:52.257Z,99.90
2018-08-06T05:31:47.331Z,99.90
2018-08-06T05:36:48.614Z,99.90
2018-08-06T05:41:43.476Z,99.90
2018-08-06T05:46:38.488Z,99.90
2018-08-06T05:51:34.287Z,99.90
2018-08-06T05:56:29.227Z,99.90
2018-08-06T06:01:23.918Z,99.90
2018-08-06T06:06:18.801Z,99.90
2018-08-06T06:11:13.538Z,99.90
2018-08-06T06:16:09.378Z,99.90
2018-08-06T06:21:04.227Z,99.90
2018-08-06T06:26:01.778Z,99.90
2018-08-06T06:30:56.431Z,99.90
2018-08-06T06:35:51.094Z,99.90
2018-08-06T06:40:46.129Z,99.90
2018-08-06T06:45:41.066Z,99.90
2018-08-06T06:50:36.326Z,99.90
2018-08-06T06:55:31.082Z,99.90
2018-08-06T07:00:25.895Z,99.90
2018-08-06T07:05:20.614Z,99.90
2018-08-06T07:10:15.344Z,99.90
2018-08-06T07:15:14.000Z,99.90
2018-08-06T07:20:09.278Z,99.90
2018-08-06T07:25:04.027Z,99.90
2018-08-06T07:29:58.766Z,99.90
2018-08-06T07:34:53.428Z,99.90
2018-08-06T07:39:47.998Z,99.90
2018-08-06T07:44:42.764Z,99.90
2018-08-06T07:49:37.640Z,99.90
2018-08-06T07:54:32.163Z,99.90
2018-08-06T07:59:26.974Z,99.90
2018-08-06T08:04:22.127Z,99.90
2018-08-06T08:09:16.950Z,99.90
2018-08-06T08:14:11.824Z,99.90
2018-08-06T08:19:06.751Z,99.90
2018-08-06T08:24:02.228Z,99.90
2018-08-06T08:28:57.278Z,99.90
2018-08-06T08:33:52.114Z,99.90
2018-08-06T08:51:36.246Z,99.90
2018-08-06T08:56:31.331Z,99.90
2018-08-06T09:01:26.269Z,99.90
2018-08-06T09:06:21.093Z,99.90
2018-08-06T09:11:15.893Z,99.90
2018-08-06T09:16:11.621Z,99.90
2018-08-06T09:21:06.720Z,99.90
2018-08-06T09:26:01.602Z,99.90
2018-08-06T09:30:56.404Z,99.90
2018-08-06T09:35:51.223Z,99.80
2018-08-06T09:40:46.392Z,99.80
2018-08-06T09:45:41.597Z,99.10
2018-08-06T09:50:36.458Z,99.10
2018-08-06T09:55:31.247Z,97.20
2018-08-06T10:00:31.276Z,97.40
2018-08-06T10:10:21.657Z,97.80
2018-08-06T10:15:16.742Z,97.30
2018-08-06T10:20:19.945Z,96.70
2018-08-06T10:25:15.803Z,97.10
2018-08-06T10:30:16.915Z,96.70
2018-08-06T10:40:26.745Z,95.60
2018-08-06T10:45:22.597Z,95.40
2018-08-06T10:50:17.390Z,95.70
2018-08-06T10:55:12.564Z,94.50
2018-08-06T11:00:12.470Z,93.90
2018-08-06T11:05:09.964Z,93.40
2018-08-06T11:10:06.927Z,94.20
2018-08-06T11:15:01.591Z,92.00
2018-08-06T11:19:56.337Z,92.20
2018-08-06T11:24:51.104Z,92.40
2018-08-06T11:29:45.836Z,90.60
2018-08-06T11:34:40.473Z,90.30
2018-08-06T11:39:35.096Z,90.40
2018-08-06T11:44:29.846Z,90.70
2018-08-06T11:49:25.528Z,89.90
2018-08-06T11:54:20.812Z,87.60
2018-08-06T12:04:09.903Z,84.30
2018-08-06T12:09:06.600Z,84.10
2018-08-06T12:14:01.266Z,85.30
2018-08-06T12:18:55.929Z,83.90
2018-08-06T12:23:50.784Z,86.80
2018-08-06T12:28:45.523Z,84.20
2018-08-06T12:33:40.244Z,81.20
2018-08-06T12:38:48.249Z,81.60
2018-08-06T12:43:42.999Z,81.50
2018-08-06T12:48:37.736Z,79.80
2018-08-06T12:53:32.450Z,75.00
2018-08-06T12:58:27.250Z,75.70
2018-08-06T13:03:22.009Z,78.50
2018-08-06T13:08:16.762Z,80.00
2018-08-06T13:13:11.609Z,80.00
2018-08-06T13:18:06.652Z,76.10
2018-08-06T13:23:01.395Z,77.00
2018-08-06T13:27:56.186Z,76.10
2018-08-06T13:32:50.940Z,80.30
2018-08-06T13:37:45.646Z,77.90
2018-08-06T13:42:40.452Z,75.90
2018-08-06T13:47:35.072Z,75.40
2018-08-06T13:52:29.783Z,76.10
2018-08-06T13:57:24.547Z,74.20
2018-08-06T14:02:19.385Z,74.00
2018-08-06T14:07:14.055Z,72.60
2018-08-06T14:12:09.152Z,72.10
2018-08-06T14:17:03.964Z,73.70
2018-08-06T14:21:58.649Z,76.30
2018-08-06T14:26:53.295Z,75.60
2018-08-06T14:31:48.137Z,75.40
2018-08-06T14:36:42.798Z,77.10
2018-08-06T14:41:37.635Z,76.30
2018-08-06T14:46:32.375Z,75.10
2018-08-06T14:51:27.187Z,73.50
2018-08-06T15:01:16.235Z,74.20
2018-08-06T15:06:11.079Z,72.10
2018-08-06T15:11:06.139Z,70.90
2018-08-06T15:16:00.771Z,71.40
2018-08-06T15:20:55.762Z,72.90
2018-08-06T15:25:50.566Z,70.30
2018-08-06T15:30:45.289Z,69.80
2018-08-06T15:35:40.108Z,72.30
2018-08-06T15:40:34.825Z,72.50
2018-08-06T15:45:29.581Z,71.00
2018-08-06T15:50:24.344Z,72.70
2018-08-06T16:08:08.429Z,73.60
2018-08-06T16:13:03.232Z,74.00
2018-08-06T16:17:57.948Z,73.90
2018-08-06T16:22:52.744Z,76.80
2018-08-06T16:27:47.408Z,78.90
2018-08-06T16:32:42.388Z,81.90
2018-08-06T16:37:37.927Z,77.30
2018-08-06T16:42:32.757Z,75.70
2018-08-06T16:47:27.551Z,80.30
2018-08-06T16:52:22.422Z,81.10
2018-08-06T16:57:17.116Z,82.10
2018-08-06T17:02:12.149Z,84.30
2018-08-06T17:07:06.892Z,85.90
2018-08-06T17:12:01.700Z,86.10
2018-08-06T17:16:56.637Z,87.20
2018-08-06T17:21:51.372Z,85.80
2018-08-06T17:26:45.976Z,85.50
2018-08-06T17:31:40.781Z,84.50
2018-08-06T17:36:35.586Z,87.10
2018-08-06T17:41:30.211Z,88.30
2018-08-06T17:46:25.562Z,89.70
2018-08-06T17:51:20.251Z,93.50
2018-08-06T17:56:16.023Z,97.90
2018-08-06T18:01:11.073Z,99.90
2018-08-06T18:06:06.133Z,99.90
2018-08-06T18:11:01.039Z,99.90
2018-08-06T18:15:56.107Z,99.90
2018-08-06T18:20:51.062Z,99.90
2018-08-06T18:25:45.954Z,99.90
2018-08-06T18:30:40.765Z,99.90
2018-08-06T18:35:35.585Z,99.90
2018-08-06T18:40:30.527Z,99.90
2018-08-06T18:45:26.344Z,99.90
2018-08-06T18:50:21.368Z,99.90
2018-08-06T18:55:16.907Z,99.90
2018-08-06T19:00:17.892Z,99.90
2018-08-06T19:05:12.671Z,99.90
2018-08-06T19:10:08.784Z,99.90
2018-08-06T19:19:59.206Z,99.90
2018-08-06T19:24:59.181Z,99.90
2018-08-06T19:29:54.022Z,99.90
2018-08-06T19:34:52.757Z,99.90
2018-08-06T19:39:47.662Z,99.90
2018-08-06T19:44:42.548Z,99.90
2018-08-06T19:49:42.371Z,99.90
2018-08-06T19:54:37.350Z,99.90
2018-08-06T19:59:32.269Z,99.90
2018-08-06T20:04:27.028Z,99.90
2018-08-06T20:09:21.899Z,99.90
2018-08-06T20:14:17.006Z,99.90
2018-08-06T20:19:11.944Z,99.90
2018-08-06T20:24:07.340Z,99.90
2018-08-06T20:29:02.343Z,99.90
2018-08-06T20:33:58.189Z,99.90
2018-08-06T20:38:52.933Z,99.90
2018-08-06T20:43:47.734Z,99.90
2018-08-06T20:48:42.596Z,99.90
2018-08-06T20:53:37.372Z,99.90
2018-08-06T20:58:32.288Z,99.90
2018-08-06T21:03:27.185Z,99.90
2018-08-06T21:08:22.040Z,99.90
2018-08-06T21:13:17.730Z,99.90
2018-08-06T21:18:12.527Z,99.90
2018-08-06T21:23:07.412Z,99.90
2018-08-06T21:28:02.191Z,99.90
2018-08-06T21:32:57.875Z,99.90
2018-08-06T21:37:53.499Z,99.90
2018-08-06T21:42:49.159Z,99.90
2018-08-06T21:47:43.995Z,99.90
2018-08-06T21:52:38.939Z,99.90
2018-08-06T21:57:33.776Z,99.90
2018-08-06T22:02:28.743Z,99.90
2018-08-06T22:07:23.479Z,99.90
2018-08-06T22:12:19.203Z,99.90
2018-08-06T22:17:14.260Z,99.90
2018-08-06T22:22:09.755Z,99.90
2018-08-06T22:27:04.672Z,99.90
2018-08-06T22:31:59.496Z,99.90
2018-08-06T22:36:54.240Z,99.90
2018-08-06T22:41:48.995Z,99.90
2018-08-06T22:46:44.612Z,99.90
2018-08-06T22:51:39.338Z,99.90
2018-08-06T22:56:34.033Z,99.90
2018-08-06T23:01:28.776Z,99.90
2018-08-06T23:06:25.122Z,99.90
2018-08-06T23:11:19.872Z,99.90
2018-08-06T23:16:14.576Z,99.90
2018-08-06T23:21:09.256Z,99.90
2018-08-06T23:26:03.996Z,99.90
2018-08-06T23:35:53.062Z,99.90
2018-08-06T23:40:47.758Z,99.90
2018-08-06T23:45:42.456Z,99.90
2018-08-06T23:50:37.057Z,99.90
2018-08-06T23:55:31.695Z,99.90
